Pagrindinis puslapis
METAR-TAF:

METAR-TAF

Oro uostai :

Bingöl, Turkija

platuma: 38-51-40N, ilguma: 40-35-33E, Aukštis: 1063 m

Dabartinis oras

Ataskaita buvo paskelbta 6 valandos ir 9 minutes, ne 12:50 UTC
Vėjas 6 kt iš Pietų, svyruoja nuo Pietų/Pietryčių ir Vakarų/Pietvakarių
Temperatūra 12°C
Drėgmė 35%
Slėgis 1015 hPa
Matomumas 10 km arba daugiau
Išsisklaidę debesys ne aukštis 3500 ft

METAR: LTCU 281250Z 19006KT 160V250 9999 SCT035 12/M03 Q1015

Laikas: 21:59 (18:59 UTC)

Prognozė

Ataskaita buvo paskelbta 5 valandos ir 19 minutes, ne 13:40 UTC
Prognozė galioja nuo 28 metu 15 UTC su 28 metu 24 UTC
Vėjas 2 kt nuo kintamojo kryptimis
Matomumas 10 km arba daugiau
Išsisklaidę debesys ne aukštis 3500 ft

TAF: LTCU 281340Z 2815/2824 VRB02KT 9999 SCT035

Orai ataskaitas ir orų prognozės (METAR, TAF).

turimą stotys yra geltonos ir raudonos taškus žemėlapyje.

Perkelti pele per norėdami pamatyti stoties vardą.

Tada spustelėkite, norėdami matyti oro stebėjimo ir prognozės.

Norėdami pakeisti žemėlapį: spustelėkite ant žalios mygtukų su juodo kryžiaus žemyn,; žalią mygtuką su brūkšneliu, jei norite nutolinti; arba žalių rodyklių gretimoms žemėlapius.


METAR-TAF: